createdAt,value
2019-02-07T00:00:00.304Z,1000.84
2019-02-07T00:01:00.264Z,1000.82
2019-02-07T00:02:00.233Z,1000.71
2019-02-07T00:03:00.198Z,1000.83
2019-02-07T00:04:00.173Z,1000.80
2019-02-07T00:05:00.310Z,1000.71
2019-02-07T00:06:00.144Z,1000.75
2019-02-07T00:07:00.098Z,1000.73
2019-02-07T00:08:00.080Z,1000.71
2019-02-07T00:09:00.057Z,1000.74
2019-02-07T00:10:00.146Z,1000.68
2019-02-07T00:11:00.013Z,1000.68
2019-02-07T00:11:59.989Z,1000.71
2019-02-07T00:12:59.982Z,1000.69
2019-02-07T00:13:59.941Z,1000.64
2019-02-07T00:14:59.933Z,1000.63
2019-02-07T00:15:59.913Z,1000.61
2019-02-07T00:16:59.879Z,1000.61
2019-02-07T00:17:59.858Z,1000.54
2019-02-07T00:18:59.850Z,1000.53
2019-02-07T00:19:59.804Z,1000.51
2019-02-07T00:20:59.767Z,1000.45
2019-02-07T00:21:59.749Z,1000.46
2019-02-07T00:22:59.718Z,1000.53
2019-02-07T00:23:59.723Z,1000.40
2019-02-07T00:24:59.699Z,1000.42
2019-02-07T00:25:59.683Z,1000.39
2019-02-07T00:26:59.645Z,1000.38
2019-02-07T00:27:59.607Z,1000.39
2019-02-07T00:28:59.603Z,1000.33
2019-02-07T00:29:59.571Z,1000.32
2019-02-07T00:30:59.559Z,1000.27
2019-02-07T00:31:59.535Z,1000.23
2019-02-07T00:32:59.500Z,1000.24
2019-02-07T00:33:59.467Z,1000.24
2019-02-07T00:34:59.456Z,1000.22
2019-02-07T00:35:59.426Z,1000.18
2019-02-07T00:36:59.393Z,1000.15
2019-02-07T00:37:59.408Z,1000.15
2019-02-07T00:38:59.367Z,1000.16
2019-02-07T00:39:59.343Z,1000.11
2019-02-07T00:40:59.322Z,1000.08
2019-02-07T00:41:59.294Z,1000.12
2019-02-07T00:42:59.253Z,1000.07
2019-02-07T00:43:59.223Z,1000.05
2019-02-07T00:44:59.199Z,999.99
2019-02-07T00:45:59.188Z,999.95
2019-02-07T00:46:59.157Z,999.92
2019-02-07T00:47:59.136Z,999.91
2019-02-07T00:48:59.126Z,999.91
2019-02-07T00:49:59.096Z,999.85
2019-02-07T00:50:59.061Z,999.89
2019-02-07T00:51:59.055Z,999.79
2019-02-07T00:52:59.011Z,999.85
2019-02-07T00:53:58.987Z,999.83
2019-02-07T00:54:59.006Z,999.77
2019-02-07T00:55:58.944Z,999.74
2019-02-07T00:56:58.918Z,999.76
2019-02-07T00:57:58.941Z,999.69
2019-02-07T00:58:58.862Z,999.66
2019-02-07T00:59:58.847Z,999.70
2019-02-07T01:00:58.816Z,999.61
2019-02-07T01:01:58.800Z,999.62
2019-02-07T01:02:58.774Z,999.62
2019-02-07T01:03:58.922Z,999.63
2019-02-07T01:04:58.728Z,999.58
2019-02-07T01:05:58.698Z,999.55
2019-02-07T01:06:58.717Z,999.55
2019-02-07T01:07:58.675Z,999.51
2019-02-07T01:08:58.643Z,999.53
2019-02-07T01:09:58.630Z,999.54
2019-02-07T01:10:58.576Z,999.45
2019-02-07T01:11:58.580Z,999.51
2019-02-07T01:12:58.533Z,999.47
2019-02-07T01:13:58.535Z,999.48
2019-02-07T01:15:02.241Z,999.41
2019-02-07T01:15:58.471Z,999.34
2019-02-07T01:16:58.461Z,999.32
2019-02-07T01:17:58.411Z,999.33
2019-02-07T01:18:58.385Z,999.28
2019-02-07T01:19:58.364Z,999.23
2019-02-07T01:20:58.344Z,999.27
2019-02-07T01:21:58.322Z,999.19
2019-02-07T01:22:58.286Z,999.25
2019-02-07T01:23:58.298Z,999.17
2019-02-07T01:24:58.268Z,999.15
2019-02-07T01:25:58.234Z,999.14
2019-02-07T01:26:58.207Z,999.13
2019-02-07T01:27:58.210Z,999.10
2019-02-07T01:28:58.149Z,999.09
2019-02-07T01:29:58.148Z,999.09
2019-02-07T01:30:58.129Z,999.05
2019-02-07T01:31:58.080Z,999.06
2019-02-07T01:32:58.061Z,999.03
2019-02-07T01:33:58.045Z,999.00
2019-02-07T01:34:58.000Z,998.97
2019-02-07T01:35:57.982Z,998.94
2019-02-07T01:36:57.962Z,998.92
2019-02-07T01:37:57.931Z,998.84
2019-02-07T01:38:57.910Z,998.87
2019-02-07T01:39:57.904Z,998.90
2019-02-07T01:40:57.864Z,998.88
2019-02-07T01:41:57.833Z,998.90
2019-02-07T01:42:57.817Z,998.83
2019-02-07T01:43:57.803Z,998.84
2019-02-07T01:44:57.768Z,998.78
2019-02-07T01:45:57.823Z,998.81
2019-02-07T01:46:57.741Z,998.81
2019-02-07T01:47:57.693Z,998.80
2019-02-07T01:48:57.692Z,998.76
2019-02-07T01:49:57.650Z,998.72
2019-02-07T01:50:57.621Z,998.68
2019-02-07T01:51:57.591Z,998.70
2019-02-07T01:52:57.592Z,998.74
2019-02-07T01:53:57.551Z,998.69
2019-02-07T01:54:57.512Z,998.67
2019-02-07T01:55:57.493Z,998.62
2019-02-07T01:56:57.470Z,998.60
2019-02-07T01:57:57.442Z,998.60
2019-02-07T01:58:57.417Z,998.52
2019-02-07T01:59:57.393Z,998.55
2019-02-07T02:00:57.366Z,998.59
2019-02-07T02:01:57.349Z,998.55
2019-02-07T02:02:57.322Z,998.55
2019-02-07T02:03:57.295Z,998.48
2019-02-07T02:04:57.289Z,998.45
2019-02-07T02:05:57.258Z,998.37
2019-02-07T02:06:57.225Z,998.49
2019-02-07T02:07:57.202Z,998.47
2019-02-07T02:08:57.173Z,998.41
2019-02-07T02:09:57.168Z,998.33
2019-02-07T02:10:57.132Z,998.44
2019-02-07T02:11:57.125Z,998.39
2019-02-07T02:12:57.099Z,998.40
2019-02-07T02:13:57.060Z,998.31
2019-02-07T02:14:57.046Z,998.38
2019-02-07T02:15:57.040Z,998.32
2019-02-07T02:16:56.979Z,998.31
2019-02-07T02:17:56.985Z,998.23
2019-02-07T02:18:56.937Z,998.27
2019-02-07T02:19:56.902Z,998.27
2019-02-07T02:20:56.880Z,998.19
2019-02-07T02:21:56.865Z,998.19
2019-02-07T02:22:56.842Z,998.22
2019-02-07T02:23:56.813Z,998.17
2019-02-07T02:24:56.797Z,998.18
2019-02-07T02:25:56.759Z,998.19
2019-02-07T02:26:56.750Z,998.17
2019-02-07T02:27:56.710Z,998.17
2019-02-07T02:28:56.691Z,998.09
2019-02-07T02:29:56.660Z,998.12
2019-02-07T02:30:56.647Z,998.03
2019-02-07T02:31:56.654Z,998.04
2019-02-07T02:32:56.590Z,997.96
2019-02-07T02:33:56.565Z,998.00
2019-02-07T02:34:56.547Z,998.00
2019-02-07T02:35:56.519Z,997.91
2019-02-07T02:36:56.493Z,997.95
2019-02-07T02:37:56.486Z,997.96
2019-02-07T02:38:56.447Z,997.91
2019-02-07T02:39:56.416Z,997.86
2019-02-07T02:40:56.400Z,997.82
2019-02-07T02:41:56.379Z,997.80
2019-02-07T02:42:56.350Z,997.87
2019-02-07T02:43:56.318Z,997.83
2019-02-07T02:44:56.296Z,997.73
2019-02-07T02:45:56.284Z,997.76
2019-02-07T02:46:56.263Z,997.72
2019-02-07T02:47:56.222Z,997.70
2019-02-07T02:48:56.195Z,997.70
2019-02-07T02:49:56.334Z,997.55
2019-02-07T02:50:56.154Z,997.58
2019-02-07T02:51:56.130Z,997.66
2019-02-07T02:52:56.097Z,997.63
2019-02-07T02:53:56.073Z,997.60
2019-02-07T02:54:56.064Z,997.53
2019-02-07T02:55:56.040Z,997.63
2019-02-07T02:56:56.003Z,997.63
2019-02-07T02:57:55.977Z,997.61
2019-02-07T02:58:55.955Z,997.48
2019-02-07T02:59:55.951Z,997.49
2019-02-07T03:00:55.936Z,997.48
2019-02-07T03:01:55.900Z,997.49
2019-02-07T03:02:55.848Z,997.39
2019-02-07T03:03:55.832Z,997.25
2019-02-07T03:04:55.798Z,997.28
2019-02-07T03:05:55.782Z,997.20
2019-02-07T03:06:55.761Z,997.21
2019-02-07T03:07:55.745Z,997.19
2019-02-07T03:08:55.706Z,997.13
2019-02-07T03:09:55.708Z,997.11
2019-02-07T03:10:55.654Z,997.05
2019-02-07T03:11:55.628Z,996.98
2019-02-07T03:12:55.679Z,997.02
2019-02-07T03:13:55.573Z,996.96
2019-02-07T03:14:55.566Z,996.92
2019-02-07T03:15:55.543Z,996.90
2019-02-07T03:16:55.511Z,996.91
2019-02-07T03:17:55.480Z,996.77
2019-02-07T03:18:55.461Z,996.85
2019-02-07T03:19:55.446Z,996.84
2019-02-07T03:20:55.409Z,996.85
2019-02-07T03:21:55.444Z,996.82
2019-02-07T03:22:55.353Z,996.80
2019-02-07T03:23:55.356Z,996.81
2019-02-07T03:24:55.303Z,996.81
2019-02-07T03:25:55.312Z,996.72
2019-02-07T03:26:55.293Z,996.74
2019-02-07T03:27:55.256Z,996.75
2019-02-07T03:28:55.202Z,996.76
2019-02-07T03:29:55.189Z,996.65
2019-02-07T03:30:55.183Z,996.70
2019-02-07T03:31:55.139Z,996.69
2019-02-07T03:32:55.116Z,996.70
2019-02-07T03:33:55.083Z,996.64
2019-02-07T03:34:55.107Z,996.58
2019-02-07T03:35:55.043Z,996.59
2019-02-07T03:36:55.042Z,996.63
2019-02-07T03:37:54.987Z,996.54
2019-02-07T03:38:54.978Z,996.57
2019-02-07T03:39:54.933Z,996.56
2019-02-07T03:40:54.910Z,996.57
2019-02-07T03:41:54.878Z,996.39
2019-02-07T03:42:54.887Z,996.47
2019-02-07T03:43:54.847Z,996.55
2019-02-07T03:44:54.807Z,996.49
2019-02-07T03:46:02.350Z,996.46
2019-02-07T03:46:54.773Z,996.44
2019-02-07T03:47:54.736Z,996.49
2019-02-07T03:48:54.716Z,996.48
2019-02-07T03:49:54.699Z,996.39
2019-02-07T03:50:54.683Z,996.27
2019-02-07T03:51:54.638Z,996.36
2019-02-07T03:52:54.608Z,996.29
2019-02-07T03:53:54.606Z,996.33
2019-02-07T03:54:54.586Z,996.24
2019-02-07T03:55:54.548Z,996.27
2019-02-07T03:56:54.511Z,996.27
2019-02-07T03:57:54.505Z,996.22
2019-02-07T03:58:54.502Z,996.28
2019-02-07T03:59:54.445Z,996.18
2019-02-07T04:00:54.413Z,996.13
2019-02-07T04:01:54.401Z,996.12
2019-02-07T04:02:54.403Z,996.03
2019-02-07T04:03:54.346Z,996.06
2019-02-07T04:04:54.313Z,995.99
2019-02-07T04:05:54.312Z,996.05
2019-02-07T04:06:54.265Z,996.03
2019-02-07T04:07:54.238Z,996.06
2019-02-07T04:08:54.227Z,996.04
2019-02-07T04:09:54.197Z,995.97
2019-02-07T04:10:54.165Z,995.95
2019-02-07T04:11:54.144Z,996.00
2019-02-07T04:12:54.129Z,995.97
2019-02-07T04:13:54.123Z,995.94
2019-02-07T04:14:54.078Z,995.93
2019-02-07T04:15:54.056Z,996.00
2019-02-07T04:16:54.025Z,995.92
2019-02-07T04:17:54.017Z,995.91
2019-02-07T04:18:53.977Z,995.97
2019-02-07T04:19:53.948Z,995.87
2019-02-07T04:20:53.930Z,995.87
2019-02-07T04:21:53.904Z,995.87
2019-02-07T04:22:53.896Z,995.91
2019-02-07T04:23:53.864Z,995.86
2019-02-07T04:24:53.836Z,995.79
2019-02-07T04:25:53.806Z,995.83
2019-02-07T04:26:53.768Z,995.73
2019-02-07T04:27:53.765Z,995.78
2019-02-07T04:28:53.731Z,995.82
2019-02-07T04:29:53.703Z,995.80
2019-02-07T04:30:53.680Z,995.70
2019-02-07T04:31:53.652Z,995.77
2019-02-07T04:32:53.650Z,995.77
2019-02-07T04:33:53.598Z,995.82
2019-02-07T04:34:53.581Z,995.82
2019-02-07T04:35:53.557Z,995.77
2019-02-07T04:36:53.525Z,995.64
2019-02-07T04:37:53.502Z,995.67
2019-02-07T04:38:53.507Z,995.68
2019-02-07T04:39:53.459Z,995.75
2019-02-07T04:40:53.440Z,995.71
2019-02-07T04:41:53.418Z,995.67
2019-02-07T04:42:53.386Z,995.68
2019-02-07T04:43:53.373Z,995.73
2019-02-07T04:44:53.389Z,995.65
2019-02-07T04:45:53.329Z,995.65
2019-02-07T04:46:53.285Z,995.60
2019-02-07T04:47:53.264Z,995.62
2019-02-07T04:48:53.246Z,995.62
2019-02-07T04:49:53.214Z,995.62
2019-02-07T04:50:53.218Z,995.62
2019-02-07T04:51:53.167Z,995.47
2019-02-07T04:52:53.158Z,995.47
2019-02-07T04:53:53.120Z,995.51
2019-02-07T04:54:53.088Z,995.46
2019-02-07T04:55:53.066Z,995.48
2019-02-07T04:56:53.037Z,995.41
2019-02-07T04:57:53.038Z,995.29
2019-02-07T04:58:52.985Z,995.35
2019-02-07T04:59:52.975Z,995.37
2019-02-07T05:00:52.958Z,995.34
2019-02-07T05:01:52.932Z,995.31
2019-02-07T05:02:52.949Z,995.38
2019-02-07T05:03:52.892Z,995.32
2019-02-07T05:04:52.863Z,995.39
2019-02-07T05:05:52.818Z,995.34
2019-02-07T05:06:52.803Z,995.29
2019-02-07T05:07:52.784Z,995.32
2019-02-07T05:08:52.767Z,995.29
2019-02-07T05:09:52.752Z,995.24
2019-02-07T05:10:52.706Z,995.26
2019-02-07T05:11:52.681Z,995.28
2019-02-07T05:12:52.655Z,995.24
2019-02-07T05:13:52.626Z,995.13
2019-02-07T05:14:52.622Z,995.12
2019-02-07T05:15:52.582Z,995.14
2019-02-07T05:16:52.556Z,995.13
2019-02-07T05:17:52.542Z,995.11
2019-02-07T05:18:52.536Z,995.02
2019-02-07T05:19:52.493Z,995.08
2019-02-07T05:20:52.469Z,995.10
2019-02-07T05:21:52.444Z,995.07
2019-02-07T05:22:52.430Z,994.97
2019-02-07T05:23:52.388Z,995.00
2019-02-07T05:24:52.358Z,994.91
2019-02-07T05:25:52.362Z,994.90
2019-02-07T05:26:52.323Z,994.96
2019-02-07T05:27:52.309Z,994.98
2019-02-07T05:28:52.263Z,994.87
2019-02-07T05:29:52.245Z,994.88
2019-02-07T05:30:52.231Z,994.87
2019-02-07T05:31:52.199Z,994.85
2019-02-07T05:32:52.180Z,994.84
2019-02-07T05:33:52.154Z,994.81
2019-02-07T05:34:52.132Z,994.82
2019-02-07T05:35:52.096Z,994.75
2019-02-07T05:36:52.079Z,994.69
2019-02-07T05:37:52.066Z,994.67
2019-02-07T05:38:52.030Z,994.69
2019-02-07T05:39:52.009Z,994.75
2019-02-07T05:40:51.988Z,994.75
2019-02-07T05:41:51.954Z,994.57
2019-02-07T05:42:51.924Z,994.67
2019-02-07T05:43:51.910Z,994.68
2019-02-07T05:44:51.882Z,994.65
2019-02-07T05:45:51.862Z,994.64
2019-02-07T05:46:51.829Z,994.59
2019-02-07T05:47:51.824Z,994.56
2019-02-07T05:48:51.792Z,994.55
2019-02-07T05:49:51.805Z,994.50
2019-02-07T05:50:51.747Z,994.46
2019-02-07T05:51:51.725Z,994.52
2019-02-07T05:52:52.649Z,994.47
2019-02-07T05:53:51.665Z,994.46
2019-02-07T05:54:51.664Z,994.38
2019-02-07T05:55:51.650Z,994.40
2019-02-07T05:56:51.602Z,994.36
2019-02-07T05:57:51.572Z,994.35
2019-02-07T05:58:51.537Z,994.33
2019-02-07T05:59:51.527Z,994.26
2019-02-07T06:00:51.491Z,994.22
2019-02-07T06:01:51.472Z,994.28
2019-02-07T06:02:51.453Z,994.24
2019-02-07T06:03:51.420Z,994.25
2019-02-07T06:04:51.406Z,994.27
2019-02-07T06:05:51.411Z,994.18
2019-02-07T06:06:51.373Z,994.18
2019-02-07T06:07:51.335Z,994.09
2019-02-07T06:08:51.307Z,994.23
2019-02-07T06:09:51.310Z,994.21
2019-02-07T06:10:51.261Z,994.13
2019-02-07T06:11:51.227Z,994.17
2019-02-07T06:12:51.206Z,994.13
2019-02-07T06:13:51.188Z,994.17
2019-02-07T06:14:51.155Z,994.12
2019-02-07T06:15:51.146Z,994.24
2019-02-07T06:17:01.998Z,994.21
2019-02-07T06:17:51.094Z,994.14
2019-02-07T06:18:51.066Z,994.13
2019-02-07T06:19:51.052Z,994.06
2019-02-07T06:20:51.020Z,994.19
2019-02-07T06:21:50.999Z,994.13
2019-02-07T06:22:50.974Z,994.14
2019-02-07T06:23:50.945Z,994.06
2019-02-07T06:24:50.917Z,994.03
2019-02-07T06:25:50.889Z,994.05
2019-02-07T06:26:50.880Z,994.03
2019-02-07T06:27:50.852Z,993.96
2019-02-07T06:28:50.822Z,994.04
2019-02-07T06:29:50.790Z,994.08
2019-02-07T06:30:50.777Z,994.08
2019-02-07T06:31:50.755Z,994.10
2019-02-07T06:32:50.719Z,994.07
2019-02-07T06:33:50.736Z,994.05
2019-02-07T06:34:50.687Z,994.08
2019-02-07T06:35:50.645Z,994.09
2019-02-07T06:36:50.618Z,994.11
2019-02-07T06:37:50.645Z,994.11
2019-02-07T06:38:50.574Z,994.10
2019-02-07T06:39:50.581Z,994.11
2019-02-07T06:40:50.533Z,994.13
2019-02-07T06:41:50.512Z,994.03
2019-02-07T06:42:50.493Z,994.09
2019-02-07T06:43:50.498Z,994.14
2019-02-07T06:44:50.447Z,994.12
2019-02-07T06:45:50.408Z,994.13
2019-02-07T06:46:50.384Z,994.12
2019-02-07T06:47:50.386Z,994.08
2019-02-07T06:48:50.333Z,993.94
2019-02-07T06:49:50.316Z,994.08
2019-02-07T06:50:50.322Z,994.07
2019-02-07T06:51:50.260Z,994.16
2019-02-07T06:52:50.249Z,994.09
2019-02-07T06:53:50.216Z,994.04
2019-02-07T06:54:50.213Z,994.06
2019-02-07T06:55:50.187Z,994.12
2019-02-07T06:56:50.156Z,994.09
2019-02-07T06:57:50.122Z,994.07
2019-02-07T06:58:50.094Z,994.06
2019-02-07T06:59:50.094Z,994.06
2019-02-07T07:00:50.050Z,994.00
2019-02-07T07:01:50.026Z,994.07
2019-02-07T07:02:50.007Z,994.14
2019-02-07T07:03:49.981Z,994.19
2019-02-07T07:04:49.954Z,994.10
2019-02-07T07:05:49.956Z,994.11
2019-02-07T07:06:49.939Z,994.08
2019-02-07T07:07:49.915Z,994.12
2019-02-07T07:08:49.902Z,993.95
2019-02-07T07:09:49.855Z,994.08
2019-02-07T07:10:49.835Z,994.15
2019-02-07T07:11:49.806Z,994.13
2019-02-07T07:12:49.773Z,994.08
2019-02-07T07:13:49.763Z,994.06
2019-02-07T07:14:49.720Z,994.01
2019-02-07T07:15:49.700Z,993.99
2019-02-07T07:16:49.715Z,994.11
2019-02-07T07:17:49.652Z,994.03
2019-02-07T07:18:49.621Z,993.98
2019-02-07T07:19:49.620Z,993.98
2019-02-07T07:20:49.568Z,994.00
2019-02-07T07:21:49.544Z,993.97
2019-02-07T07:22:49.593Z,993.93
2019-02-07T07:23:49.519Z,993.94
2019-02-07T07:24:49.494Z,993.97
2019-02-07T07:25:49.461Z,994.02
2019-02-07T07:26:49.430Z,993.98
2019-02-07T07:27:49.429Z,994.00
2019-02-07T07:28:49.381Z,993.98
2019-02-07T07:29:49.395Z,993.98
2019-02-07T07:30:49.330Z,993.99
2019-02-07T07:31:49.304Z,993.94
2019-02-07T07:32:49.311Z,994.00
2019-02-07T07:33:49.360Z,993.97
2019-02-07T07:34:49.284Z,993.97
2019-02-07T07:35:49.218Z,994.00
2019-02-07T07:36:49.198Z,993.99
2019-02-07T07:37:49.162Z,993.99
2019-02-07T07:38:49.158Z,993.94
2019-02-07T07:39:49.132Z,993.92
2019-02-07T07:40:49.101Z,993.89
2019-02-07T07:41:49.098Z,993.89
2019-02-07T07:42:49.044Z,993.83
2019-02-07T07:43:49.022Z,993.87
2019-02-07T07:44:48.995Z,993.92
2019-02-07T07:45:48.982Z,993.90
2019-02-07T07:46:48.965Z,993.86
2019-02-07T07:47:48.925Z,993.78
2019-02-07T07:48:48.920Z,993.83
2019-02-07T07:49:48.886Z,993.93
2019-02-07T07:50:48.857Z,993.96
2019-02-07T07:51:48.830Z,993.97
2019-02-07T07:52:48.845Z,994.02
2019-02-07T07:53:48.823Z,993.96
2019-02-07T07:54:48.795Z,993.97
2019-02-07T07:55:48.737Z,993.99
2019-02-07T07:56:48.730Z,994.06
2019-02-07T07:57:48.707Z,994.00
2019-02-07T07:58:48.673Z,993.97
2019-02-07T07:59:48.653Z,993.96
2019-02-07T08:00:48.625Z,993.89
2019-02-07T08:01:48.600Z,994.01
2019-02-07T08:02:48.575Z,994.06
2019-02-07T08:03:48.586Z,994.06
2019-02-07T08:04:48.548Z,994.01
2019-02-07T08:05:48.540Z,993.93
2019-02-07T08:06:48.486Z,993.99
2019-02-07T08:07:48.456Z,993.98
2019-02-07T08:08:48.474Z,993.99
2019-02-07T08:09:48.419Z,993.86
2019-02-07T08:10:48.385Z,994.02
2019-02-07T08:11:48.379Z,993.99
2019-02-07T08:12:48.354Z,994.00
2019-02-07T08:13:48.315Z,994.04
2019-02-07T08:14:48.311Z,994.05
2019-02-07T08:15:48.265Z,994.00
2019-02-07T08:16:48.271Z,994.12
2019-02-07T08:17:48.258Z,994.04
2019-02-07T08:18:48.221Z,994.03
2019-02-07T08:19:48.179Z,994.05
2019-02-07T08:20:48.159Z,994.07
2019-02-07T08:21:48.153Z,994.06
2019-02-07T08:22:48.106Z,994.12
2019-02-07T08:23:48.085Z,994.17
2019-02-07T08:24:48.071Z,994.17
2019-02-07T08:25:48.068Z,994.17
2019-02-07T08:26:48.019Z,994.12
2019-02-07T08:27:48.019Z,994.15
2019-02-07T08:28:47.977Z,994.16
2019-02-07T08:29:47.944Z,994.13
2019-02-07T08:30:47.923Z,994.23
2019-02-07T08:31:47.896Z,994.31
2019-02-07T08:32:47.901Z,994.26
2019-02-07T08:33:47.860Z,994.19
2019-02-07T08:34:47.835Z,994.18
2019-02-07T08:35:47.847Z,994.23
2019-02-07T08:36:47.780Z,994.32
2019-02-07T08:37:47.776Z,994.25
2019-02-07T08:38:49.899Z,994.29
2019-02-07T08:39:47.710Z,994.30
2019-02-07T08:40:47.693Z,994.35
2019-02-07T08:41:47.669Z,994.28
2019-02-07T08:42:47.641Z,994.36
2019-02-07T08:43:47.656Z,994.38
2019-02-07T08:44:47.617Z,994.40
2019-02-07T08:45:47.591Z,994.38
2019-02-07T08:46:47.576Z,994.43
2019-02-07T08:47:58.180Z,994.43
2019-02-07T08:48:47.516Z,994.44
2019-02-07T08:49:47.497Z,994.48
2019-02-07T08:50:47.471Z,994.51
2019-02-07T08:51:47.460Z,994.53
2019-02-07T08:52:47.410Z,994.49
2019-02-07T08:53:47.405Z,994.48
2019-02-07T08:54:47.384Z,994.57
2019-02-07T08:55:47.350Z,994.52
2019-02-07T08:56:47.324Z,994.55
2019-02-07T08:57:47.295Z,994.61
2019-02-07T08:58:47.295Z,994.66
2019-02-07T08:59:47.262Z,994.68
2019-02-07T09:00:47.230Z,994.65
2019-02-07T09:01:47.210Z,994.62
2019-02-07T09:02:51.874Z,994.66
2019-02-07T09:03:47.171Z,994.69
2019-02-07T09:04:47.146Z,994.67
2019-02-07T09:05:47.108Z,994.73
2019-02-07T09:06:47.131Z,994.67
2019-02-07T09:07:47.067Z,994.77
2019-02-07T09:08:47.050Z,994.74
2019-02-07T09:09:47.019Z,994.68
2019-02-07T09:10:46.993Z,994.65
2019-02-07T09:11:46.973Z,994.57
2019-02-07T09:12:46.980Z,994.59
2019-02-07T09:13:46.923Z,994.66
2019-02-07T09:14:46.904Z,994.62
2019-02-07T09:15:46.882Z,994.62
2019-02-07T09:16:46.873Z,994.57
2019-02-07T09:17:46.856Z,994.66
2019-02-07T09:18:46.863Z,994.67
2019-02-07T09:19:46.808Z,994.64
2019-02-07T09:20:47.169Z,994.62
2019-02-07T09:21:46.769Z,994.53
2019-02-07T09:22:46.787Z,994.54
2019-02-07T09:23:46.825Z,994.59
2019-02-07T09:24:46.679Z,994.64
2019-02-07T09:25:47.481Z,994.62
2019-02-07T09:26:46.646Z,994.62
2019-02-07T09:27:46.606Z,994.62
2019-02-07T09:28:46.590Z,994.57
2019-02-07T09:29:46.554Z,994.60
2019-02-07T09:30:46.534Z,994.60
2019-02-07T09:31:46.530Z,994.60
2019-02-07T09:32:46.521Z,994.67
2019-02-07T09:33:46.475Z,994.80
2019-02-07T09:34:46.453Z,994.77
2019-02-07T09:35:46.433Z,994.77
2019-02-07T09:36:46.401Z,994.88
2019-02-07T09:37:46.375Z,994.69
2019-02-07T09:38:46.368Z,994.72
2019-02-07T09:39:46.345Z,994.78
2019-02-07T09:40:46.319Z,994.74
2019-02-07T09:41:46.297Z,994.81
2019-02-07T09:42:46.277Z,994.86
2019-02-07T09:43:46.252Z,994.85
2019-02-07T09:44:46.259Z,994.80
2019-02-07T09:45:46.240Z,994.87
2019-02-07T09:46:46.175Z,994.86
2019-02-07T09:47:46.155Z,994.83
2019-02-07T09:48:46.135Z,994.87
2019-02-07T09:49:46.112Z,994.94
2019-02-07T09:50:46.093Z,994.92
2019-02-07T09:51:46.070Z,994.90
2019-02-07T09:52:46.092Z,994.92
2019-02-07T09:53:46.041Z,994.94
2019-02-07T09:54:46.017Z,994.89
2019-02-07T09:55:45.986Z,994.96
2019-02-07T09:56:46.034Z,994.98
2019-02-07T09:57:45.966Z,994.96
2019-02-07T09:58:45.922Z,994.84
2019-02-07T09:59:45.912Z,994.92
2019-02-07T10:00:45.867Z,995.02
2019-02-07T10:01:45.850Z,994.92
2019-02-07T10:02:45.816Z,994.97
2019-02-07T10:03:45.804Z,995.00
2019-02-07T10:04:45.772Z,995.05
2019-02-07T10:05:45.749Z,995.11
2019-02-07T10:06:45.747Z,995.07
2019-02-07T10:07:45.718Z,995.11
2019-02-07T10:08:45.731Z,995.14
2019-02-07T10:09:45.673Z,995.19
2019-02-07T10:10:45.664Z,995.11
2019-02-07T10:11:45.643Z,995.10
2019-02-07T10:12:46.130Z,995.15
2019-02-07T10:13:45.927Z,995.17
2019-02-07T10:14:45.565Z,995.19
2019-02-07T10:15:45.521Z,995.18
2019-02-07T10:16:45.531Z,995.21
2019-02-07T10:17:45.558Z,995.25
2019-02-07T10:18:45.462Z,995.21
2019-02-07T10:19:45.436Z,995.29
2019-02-07T10:20:45.739Z,995.16
2019-02-07T10:21:45.814Z,995.27
2019-02-07T10:22:46.656Z,995.25
2019-02-07T10:23:45.411Z,995.26
2019-02-07T10:24:45.326Z,995.29
2019-02-07T10:25:45.305Z,995.21
2019-02-07T10:26:45.288Z,995.35
2019-02-07T10:27:45.263Z,995.37
2019-02-07T10:28:45.236Z,995.36
2019-02-07T10:29:45.239Z,995.40
2019-02-07T10:30:45.206Z,995.29
2019-02-07T10:31:45.170Z,995.43
2019-02-07T10:32:45.143Z,995.38
2019-02-07T10:33:45.240Z,995.37
2019-02-07T10:34:45.159Z,995.39
2019-02-07T10:35:45.094Z,995.38
2019-02-07T10:36:45.073Z,995.39
2019-02-07T10:37:45.040Z,995.40
2019-02-07T10:38:45.016Z,995.44
2019-02-07T10:39:45.006Z,995.40
2019-02-07T10:40:44.962Z,995.44
2019-02-07T10:41:44.981Z,995.40
2019-02-07T10:42:44.918Z,995.35
2019-02-07T10:43:44.917Z,995.28
2019-02-07T10:44:44.921Z,995.32
2019-02-07T10:45:44.870Z,995.30
2019-02-07T10:46:44.862Z,995.27
2019-02-07T10:47:44.815Z,995.31
2019-02-07T10:48:44.857Z,995.33
2019-02-07T10:49:44.791Z,995.29
2019-02-07T10:50:44.751Z,995.27
2019-02-07T10:51:44.730Z,995.29
2019-02-07T10:52:44.713Z,995.36
2019-02-07T10:53:44.684Z,995.38
2019-02-07T10:54:44.658Z,995.34
2019-02-07T10:55:44.644Z,995.28
2019-02-07T10:56:44.649Z,995.33
2019-02-07T10:57:44.597Z,995.28
2019-02-07T10:58:44.591Z,995.31
2019-02-07T10:59:44.567Z,995.28
2019-02-07T11:00:44.534Z,995.24
2019-02-07T11:01:44.542Z,995.32
2019-02-07T11:02:44.487Z,995.30
2019-02-07T11:03:44.484Z,995.29
2019-02-07T11:04:44.466Z,995.26
2019-02-07T11:05:44.415Z,995.29
2019-02-07T11:06:44.395Z,995.25
2019-02-07T11:07:44.395Z,995.23
2019-02-07T11:08:44.396Z,995.23
2019-02-07T11:09:44.335Z,995.25
2019-02-07T11:10:44.327Z,995.21
2019-02-07T11:11:44.328Z,995.14
2019-02-07T11:12:44.469Z,995.19
2019-02-07T11:13:44.259Z,995.19
2019-02-07T11:14:44.256Z,995.20
2019-02-07T11:15:44.224Z,995.17
2019-02-07T11:16:44.182Z,995.22
2019-02-07T11:17:44.179Z,995.19
2019-02-07T11:18:55.069Z,995.18
2019-02-07T11:19:44.124Z,995.14
2019-02-07T11:20:44.098Z,995.14
2019-02-07T11:21:44.090Z,995.10
2019-02-07T11:22:44.068Z,995.15
2019-02-07T11:23:44.065Z,995.20
2019-02-07T11:24:44.007Z,995.16
2019-02-07T11:25:43.997Z,995.17
2019-02-07T11:26:43.991Z,995.08
2019-02-07T11:27:43.951Z,995.13
2019-02-07T11:28:43.942Z,995.17
2019-02-07T11:29:43.897Z,995.19
2019-02-07T11:30:43.882Z,995.19
2019-02-07T11:31:43.893Z,995.21
2019-02-07T11:32:43.843Z,995.24
2019-02-07T11:33:43.818Z,995.22
2019-02-07T11:34:45.934Z,995.25
2019-02-07T11:35:43.770Z,995.24
2019-02-07T11:36:53.621Z,995.20
2019-02-07T11:37:43.759Z,995.17
2019-02-07T11:38:43.711Z,995.22
2019-02-07T11:39:43.693Z,995.23
2019-02-07T11:40:43.673Z,995.20
2019-02-07T11:41:43.658Z,995.22
2019-02-07T11:42:43.629Z,995.20
2019-02-07T11:43:43.634Z,995.16
2019-02-07T11:44:43.587Z,995.24
2019-02-07T11:45:43.577Z,995.18
2019-02-07T11:46:43.537Z,995.20
2019-02-07T11:47:43.538Z,995.20
2019-02-07T11:48:43.520Z,995.19
2019-02-07T11:49:43.502Z,995.14
2019-02-07T11:50:43.462Z,995.19
2019-02-07T11:51:43.476Z,995.21
2019-02-07T11:52:43.410Z,995.16
2019-02-07T11:53:43.407Z,995.17
2019-02-07T11:54:43.409Z,995.21
2019-02-07T11:55:43.346Z,995.20
2019-02-07T11:56:43.354Z,995.33
2019-02-07T11:57:43.299Z,995.17
2019-02-07T11:58:43.303Z,995.22
2019-02-07T11:59:43.290Z,995.21
2019-02-07T12:00:43.239Z,995.24
2019-02-07T12:01:43.270Z,995.15
2019-02-07T12:02:43.211Z,995.18
2019-02-07T12:03:43.415Z,995.11
2019-02-07T12:04:43.157Z,995.12
2019-02-07T12:05:43.157Z,995.12
2019-02-07T12:06:43.134Z,995.19
2019-02-07T12:07:43.095Z,995.13
2019-02-07T12:08:43.085Z,995.11
2019-02-07T12:09:43.057Z,995.07
2019-02-07T12:10:43.064Z,995.05
2019-02-07T12:11:43.025Z,995.02
2019-02-07T12:12:43.013Z,995.02
2019-02-07T12:13:42.977Z,994.99
2019-02-07T12:14:42.985Z,994.99
2019-02-07T12:15:42.930Z,994.99
2019-02-07T12:16:42.912Z,994.99
2019-02-07T12:17:42.879Z,994.91
2019-02-07T12:18:42.862Z,994.84
2019-02-07T12:19:42.842Z,994.88
2019-02-07T12:20:42.825Z,994.90
2019-02-07T12:21:42.790Z,994.93
2019-02-07T12:22:42.769Z,994.89
2019-02-07T12:23:42.757Z,994.96
2019-02-07T12:24:42.792Z,994.90
2019-02-07T12:25:42.725Z,994.84
2019-02-07T12:26:42.702Z,994.83